KHYS/HYS METAR and TAF weather

Enter ICAO airport designator
Station Type Date Time Source
KHYS METAR 2019/02/17 14:56 UTC NOAA

KHYS 171456Z AUTO 32010KT 10SM CLR M06/M09 A2994 RMK AO2 PRESRR SLP166 T10611094 53025 FZRANO


Station Type Date Time Source
KHYS Decoded METAR 2019/02/17 14:56 UTC NOAA

Hays, Hays Regional Airport, KS, United States (KHYS) 38-51N 099-16W
Feb 17, 2019 - 09:56 AM EST / 2019.02.17 1456 UTC
Wind: from the NW (320 degrees) at 12 MPH (10 KT):0
Visibility: 10 mile(s):0
Sky conditions: clear
Temperature: 21.0 F (-6.1 C)
Windchill: 8 F (-13 C):1
Dew Point: 15.1 F (-9.4 C)
Relative Humidity: 77%
Pressure (altimeter): 29.94 in. Hg (1013 hPa)
Pressure tendency: rising rapidly - 0.07 inches (2.5 hPa) higher than three hours ago
ob: KHYS 171456Z AUTO 32010KT 10SM CLR M06/M09 A2994 RMK AO2 PRESRR SLP166 T10611094 53025 FZRANO
cycle: 15

Station Type Date Time Source
KHYS TAF 2019/02/17 12:39 UTC NOAA

TAF KHYS 171137Z 1712/1812 30008KT P6SM BKN060
FM171500 33012KT P6SM SKC
FM180000 35010KT P6SM SKC


Example: see airport list